Terminal Aerodrome Forecast
Issued by NWS

Home | Current Version | Previous Version | Text Only | Print | Product List | Glossary On
Versions: 1 2 3 4 5 6 7 8 9 10 11 12 13 14 15 16
014
FTUS46 KMTR 232320
TAFSTS
TAF
KSTS 232320Z 2400/2424 29010KT P6SM FEW025
     FM240400 30004KT P6SM SKC
     FM241500 VRB03KT 6SM BR SKC
     FM241800 28005KT P6SM BKN100=

USA.gov is the U.S. government's official web portal to all federal, state and local government web resources and services.